Latest Weather Observations for Cocos Island

IDW60801

Issued at 8:32 pm WST Monday 22 December 2014 (issued every 30 minutes, with the page automatically refreshed every 10 minutes)

About weather observations | Map of weather stations | Latest weather observations for WA | Other Formats
Station Details ID: 200284 Name: COCOS ISLAND AIRPORT Lat: -12.19 Lon: 96.83 Height: 3.0 m
Data from the previous 72 hours. | See also: Recent months at Cocos Island
Date/Time
WST
Temp
°C
App
Temp
°C
Dew
Point
Rel
Hum
%
Delta-T
°C
Wind Press
QNH
hPa
Press
MSL
hPa
Rain
since 9 am
mm
Dir
 
Spd
km/h
Gust
km/h
Spd
kts
Gust
kts
22/08:30pm 26.5 26.1 23.1 81 2.3 SE 30 37 16 20 1007.7 - 0.0
22/08:00pm 26.7 27.1 23.2 81 2.4 SE 26 33 14 18 1007.5 1007.5 0.0
22/07:30pm 26.2 26.4 23.4 84 1.9 SE 28 39 15 21 1007.2 - 0.0
22/07:25pm 26.5 27.2 23.6 84 2.0 SE 26 35 14 19 1007.1 - 0.0
22/07:15pm 26.1 27.5 24.2 89 1.3 ESE 24 35 13 19 1007.0 - 0.0
22/07:00pm 26.4 26.8 23.8 85 1.8 SE 28 41 15 22 1006.8 - 0.0
22/06:30pm 27.1 28.2 23.6 81 2.4 ESE 24 32 13 17 1006.6 - 0.0
22/06:00pm 28.1 28.7 23.4 75 3.2 SE 26 35 14 19 1006.5 - 0.0
22/05:30pm 28.0 27.3 23.2 75 3.3 SE 32 39 17 21 1006.4 - 0.0
22/05:00pm 28.2 28.1 23.5 75 3.2 SE 30 41 16 22 1006.5 1006.5 0.0
22/04:30pm 28.5 27.9 22.6 70 4.0 SE 30 37 16 20 1006.7 - 0.0
22/04:00pm 28.9 28.5 23.7 73 3.6 SE 32 37 17 20 1007.1 - 0.0
22/03:30pm 29.0 28.6 23.0 70 4.1 SE 30 37 16 20 1007.5 - 0.0
22/03:00pm 28.9 29.0 23.2 71 3.9 SE 28 39 15 21 1007.8 - 0.0
22/02:30pm 29.4 29.5 23.9 72 3.8 SE 30 39 16 21 1008.1 - 0.0
22/02:00pm 29.3 29.4 23.3 70 4.1 SE 28 37 15 20 1008.5 1008.5 0.0
22/01:30pm 28.5 28.6 23.2 73 3.6 SE 28 35 15 19 1008.9 - 0.0
22/01:00pm 29.0 29.2 23.5 72 3.8 SE 28 37 15 20 1009.2 - 0.0
22/12:30pm 28.7 28.7 23.8 75 3.4 SE 30 37 16 20 1009.4 - 0.0
22/12:00pm 29.0 28.8 22.8 69 4.2 SE 28 35 15 19 1009.5 - 0.0
22/11:30am 27.8 28.1 23.0 75 3.3 SE 26 35 14 19 1009.7 - 0.0
22/11:00am 27.9 28.0 23.2 75 3.2 SE 28 37 15 20 1009.6 1009.6 0.0
22/10:30am 27.4 27.5 23.3 78 2.8 SE 28 39 15 21 1009.6 - 0.0
22/10:00am 26.3 26.9 23.5 84 1.9 SSE 26 33 14 18 1009.5 - 0.0
22/09:30am 27.2 27.6 23.2 79 2.7 SE 26 33 14 18 1009.2 - 0.0
22/09:00am 26.9 27.6 22.9 79 2.7 SE 24 32 13 17 1008.8 - 0.0
22/08:30am 27.0 27.7 22.9 78 2.8 SE 24 32 13 17 1008.4 - 0.0
22/08:00am 26.6 27.0 22.5 78 2.8 SE 24 30 13 16 1008.3 1008.3 0.0
22/07:00am 26.0 26.7 22.9 83 2.1 SE 24 32 13 17 1007.8 - 0.0
22/06:30am 25.8 26.5 23.0 84 1.9 SE 24 30 13 16 1007.5 - 0.0
22/06:00am 25.9 26.7 23.1 84 1.9 SE 24 32 13 17 1007.3 - 0.0
22/05:30am 25.9 27.0 23.1 84 1.9 SE 22 28 12 15 1007.4 - 0.0
22/05:00am 25.9 27.0 23.1 84 1.9 SE 22 30 12 16 1007.4 1007.4 0.0
22/04:30am 25.9 27.0 23.0 84 2.0 SE 22 28 12 15 1007.5 - 0.0
22/04:00am 25.8 27.4 23.2 85 1.8 SE 20 28 11 15 1007.9 - 0.0
22/03:30am 25.8 26.7 22.7 83 2.1 SE 22 28 12 15 1008.0 - 0.0
22/03:00am 25.8 26.7 22.7 83 2.1 SE 22 30 12 16 1008.2 - 0.0
22/02:30am 25.8 25.5 22.5 82 2.2 SE 28 33 15 18 1008.6 - 0.0
22/02:00am 25.9 27.4 23.0 84 2.0 SE 20 30 11 16 1009.0 1009.0 0.0
22/01:30am 26.0 26.9 22.7 82 2.2 SSE 22 28 12 15 1009.4 - 0.0
22/01:00am 26.0 27.3 23.4 85 1.8 SE 22 30 12 16 1009.7 - 0.0
22/12:30am 26.2 26.9 23.0 82 2.2 SSE 24 30 13 16 1009.9 - 0.0
22/12:00am 26.3 27.1 23.2 83 2.1 SE 24 30 13 16 1010.0 - 0.0
 
Date/Time
WST
Temp
°C
App
Temp
°C
Dew
Point
Rel
Hum
%
Delta-T
°C
Wind Press
QNH
hPa
Press
MSL
hPa
Rain
since 9 am
mm
Dir
 
Spd
km/h
Gust
km/h
Spd
kts
Gust
kts
21/11:30pm 26.5 27.6 23.1 81 2.3 SE 22 30 12 16 1010.0 - 0.0
21/11:00pm 26.6 27.4 23.2 81 2.3 SE 24 30 13 16 1009.9 1009.9 0.0
21/10:30pm 26.6 27.2 22.8 79 2.6 SE 24 32 13 17 1009.8 - 0.0
21/10:00pm 26.9 27.9 22.8 78 2.8 SE 22 30 12 16 1009.5 - 0.0
21/09:30pm 26.9 27.5 22.8 78 2.8 ESE 24 30 13 16 1009.3 - 0.0
21/09:00pm 26.1 28.3 23.3 84 1.9 SSE 17 20 9 11 1009.1 - 0.0
21/08:30pm 25.9 27.4 23.1 84 1.9 SSE 20 24 11 13 1008.9 - 0.0
21/08:00pm 26.3 27.9 23.2 83 2.1 SE 20 30 11 16 1008.6 1008.6 0.0
21/07:30pm 26.5 27.3 22.5 78 2.7 SSE 22 28 12 15 1008.1 - 0.0
21/07:00pm 27.2 28.2 22.9 77 2.9 SE 22 30 12 16 1007.9 - 0.0
21/06:30pm 27.3 27.8 22.7 76 3.1 SE 24 28 13 15 1007.8 - 0.0
21/06:00pm 28.0 28.9 22.7 73 3.6 SE 22 28 12 15 1007.7 - 0.0
21/05:30pm 28.0 28.3 22.2 70 3.9 SE 24 32 13 17 1007.6 - 0.0
21/05:00pm 28.5 29.4 22.6 70 4.0 SE 22 30 12 16 1007.7 1007.7 0.0
21/04:30pm 28.6 29.3 22.2 68 4.3 SE 22 28 12 15 1007.9 - 0.0
21/04:00pm 28.7 28.7 22.4 68 4.3 SE 26 32 14 17 1008.1 - 0.0
21/03:30pm 28.2 28.1 22.3 70 4.0 SE 26 32 14 17 1008.5 - 0.0
21/03:00pm 28.7 28.9 22.8 70 4.0 SE 26 32 14 17 1008.8 - 0.0
21/02:30pm 29.1 28.8 22.6 68 4.4 SE 28 35 15 19 1009.1 - 0.0
21/02:00pm 29.0 28.7 22.5 68 4.4 SE 28 35 15 19 1009.3 1009.3 0.0
21/01:30pm 28.7 28.0 22.5 69 4.2 SE 30 39 16 21 1009.5 - 0.0
21/01:00pm 29.0 28.2 22.4 67 4.5 SE 30 37 16 20 1009.9 - 0.0
21/12:30pm 29.1 28.1 21.3 62 5.2 ESE 28 35 15 19 1010.2 - 0.0
21/12:00pm 28.7 28.2 22.2 68 4.4 SE 28 35 15 19 1010.3 - 0.0
21/11:30am 28.4 27.4 21.2 65 4.8 SE 28 35 15 19 1010.4 - 0.0
21/11:00am 28.2 27.0 21.5 67 4.5 SE 30 39 16 21 1010.4 1010.4 0.0
21/10:30am 28.0 26.4 21.6 68 4.3 SE 32 39 17 21 1010.4 - 0.0
21/10:00am 27.5 26.0 21.7 70 3.9 SE 32 41 17 22 1010.1 - 0.0
21/09:30am 26.9 25.2 21.3 71 3.7 SE 32 41 17 22 1010.0 - 0.0
21/09:00am 26.6 25.1 21.7 74 3.3 SE 32 43 17 23 1010.0 - 0.0
21/08:30am 26.2 25.1 21.7 76 3.0 SE 30 41 16 22 1009.8 - 0.0
21/08:00am 25.9 24.5 21.9 78 2.7 SE 32 41 17 22 1009.6 1009.6 0.0
21/07:30am 25.6 24.4 21.5 78 2.7 SE 30 39 16 21 1009.1 - 0.0
21/07:00am 25.5 24.7 21.7 79 2.5 SE 28 35 15 19 1008.8 - 0.0
21/06:30am 25.7 25.1 22.0 80 2.5 SE 28 33 15 18 1008.7 - 0.0
21/06:00am 25.5 24.6 21.4 78 2.7 SE 28 33 15 18 1008.7 - 0.0
21/05:30am 25.4 24.7 21.8 80 2.4 SE 28 39 15 21 1008.7 - 0.0
21/05:00am 25.6 25.1 22.2 81 2.3 ESE 28 35 15 19 1008.8 1008.8 0.0
21/04:30am 25.2 24.9 22.5 85 1.8 SE 28 35 15 19 1009.1 - 0.0
21/04:00am 25.8 25.6 22.7 83 2.1 SE 28 35 15 19 1009.5 - 0.0
21/03:30am 26.2 26.3 21.9 77 2.9 SE 24 32 13 17 1009.8 - 0.0
21/03:00am 25.8 26.2 21.7 78 2.7 SE 22 28 12 15 1010.2 - 0.0
21/02:30am 25.3 26.0 22.2 83 2.1 SE 22 28 12 15 1010.6 - 0.0
21/02:00am 25.2 25.2 22.4 84 1.9 SE 26 33 14 18 1011.0 1011.0 0.0
21/01:30am 25.0 24.1 22.2 84 1.9 ESE 30 39 16 21 1011.2 - 0.0
21/01:00am 26.1 25.1 21.3 75 3.2 SE 28 41 15 22 1011.4 - 0.0
21/12:30am 25.4 25.6 22.1 82 2.2 SE 24 37 13 20 1011.6 - 0.0
21/12:07am 25.6 26.6 22.8 84 1.9 SSE 22 33 12 18 1011.6 - 0.0
21/12:00am 25.2 25.6 22.4 84 1.9 SSE 24 33 13 18 1011.6 - 0.0
 
Date/Time
WST
Temp
°C
App
Temp
°C
Dew
Point
Rel
Hum
%
Delta-T
°C
Wind Press
QNH
hPa
Press
MSL
hPa
Rain
since 9 am
mm
Dir
 
Spd
km/h
Gust
km/h
Spd
kts
Gust
kts
20/11:52pm 24.5 23.3 22.6 89 1.3 SE 33 44 18 24 1011.6 - 0.0
20/11:30pm 26.3 25.7 22.0 77 2.9 SE 28 37 15 20 1011.3 - 0.0
20/11:00pm 26.3 25.4 22.1 77 2.8 SE 30 39 16 21 1011.0 1011.0 0.0
20/10:30pm 26.3 25.1 22.3 78 2.7 SE 32 41 17 22 1010.8 - 0.0
20/10:00pm 26.4 25.1 22.4 78 2.7 SE 33 43 18 23 1010.5 - 0.0
20/09:30pm 26.5 25.5 22.7 79 2.6 SE 32 43 17 23 1010.2 - 0.0
20/09:00pm 26.6 25.1 22.1 76 3.0 SE 33 41 18 22 1010.0 - 0.0
20/08:30pm 26.4 24.7 22.5 79 2.6 SE 35 44 19 24 1009.8 - 0.0
20/08:00pm 26.6 24.9 22.5 78 2.8 SE 35 43 19 23 1009.5 1009.5 0.0
20/07:30pm 27.0 26.1 22.9 78 2.8 SE 32 39 17 21 1009.1 - 0.0
20/07:00pm 27.4 26.9 22.8 76 3.1 SE 30 37 16 20 1008.9 - 0.0
20/06:30pm 27.3 26.1 22.7 76 3.1 SE 33 41 18 22 1008.8 - 0.0
20/06:00pm 27.0 25.5 22.7 77 2.9 SE 35 43 19 23 1008.8 - 0.0
20/05:50pm 26.8 25.8 22.7 78 2.8 SE 32 43 17 23 1008.8 - 0.0
20/05:30pm 26.1 25.4 23.2 84 2.0 SE 32 44 17 24 1008.8 - 0.0
20/05:25pm 26.9 26.7 23.4 81 2.4 SE 30 39 16 21 1008.9 - 0.0
20/05:00pm 27.4 26.6 23.0 77 3.0 SE 32 39 17 21 1008.9 1008.9 0.0
20/04:30pm 28.0 26.9 22.5 72 3.7 SE 32 37 17 20 1009.1 - 0.0
20/04:00pm 28.0 27.6 23.0 74 3.4 SE 30 39 16 21 1009.5 - 0.0
20/03:55pm 27.7 27.8 23.2 76 3.1 SE 28 39 15 21 1009.6 - 0.0
20/03:30pm 26.3 26.1 24.0 87 1.6 ESE 32 43 17 23 1010.1 - 0.0
20/03:00pm 28.3 28.3 23.0 73 3.6 SE 28 35 15 19 1010.2 - 0.0
20/02:30pm 29.0 29.7 23.6 72 3.7 SE 26 33 14 18 1010.5 - 0.0
20/02:00pm 28.6 28.6 23.0 71 3.8 SE 28 37 15 20 1010.9 1010.9 0.0
20/01:30pm 28.3 27.6 23.2 74 3.5 SE 32 41 17 22 1011.2 - 0.0
20/01:00pm 27.9 28.0 23.2 75 3.2 ESE 28 37 15 20 1011.6 - 0.0
20/12:30pm 28.4 28.7 23.6 75 3.3 SE 28 35 15 19 1011.8 - 0.0
20/12:00pm 28.7 28.4 23.8 75 3.4 SE 32 39 17 21 1012.0 - 0.0
20/11:30am 29.0 29.1 23.3 71 3.9 SE 28 37 15 20 1012.2 - 0.0
20/11:00am 28.9 29.6 23.7 73 3.6 SE 26 35 14 19 1012.3 1012.3 0.0
20/10:30am 28.1 28.2 23.3 75 3.3 SE 28 35 15 19 1012.4 - 0.0
20/10:00am 28.2 28.8 23.4 75 3.3 SE 26 35 14 19 1012.2 - 0.0
20/09:30am 27.2 27.6 22.5 75 3.2 SE 24 32 13 17 1011.9 - 0.0
20/09:00am 26.8 27.2 22.5 77 2.9 SE 24 32 13 17 1011.6 - 0.0
20/08:30am 26.6 27.1 22.6 78 2.7 SE 24 32 13 17 1011.4 - 0.0
20/08:00am 26.4 27.0 22.1 77 2.9 SE 22 30 12 16 1011.2 1011.2 0.0
20/07:30am 26.2 26.9 22.2 78 2.7 SE 22 28 12 15 1011.0 - 0.0
20/07:00am 25.9 26.2 22.3 80 2.4 SE 24 32 13 17 1010.7 - 0.0
20/06:30am 26.0 26.5 22.6 81 2.3 SE 24 30 13 16 1010.5 - 0.0
20/06:00am 26.0 26.8 22.4 80 2.4 SE 22 30 12 16 1010.4 - 0.0
20/05:30am 26.1 26.6 22.7 81 2.3 SE 24 30 13 16 1010.6 - 0.0
20/05:00am 26.1 26.5 22.5 80 2.4 SE 24 30 13 16 1010.6 1010.6 0.0
20/04:30am 26.0 26.7 22.3 80 2.5 SE 22 28 12 15 1010.7 - 0.0
20/04:00am 26.2 26.0 22.0 77 2.8 SE 26 33 14 18 1010.9 - 0.0
20/03:30am 26.2 25.9 21.9 77 2.9 SE 26 33 14 18 1011.1 - 0.0
20/03:00am 26.3 26.0 21.8 76 3.0 SE 26 32 14 17 1011.4 - 0.0
20/02:30am 26.3 26.0 21.8 76 3.0 SE 26 33 14 18 1011.6 - 0.0
20/02:00am 26.3 25.6 21.8 76 3.0 SE 28 35 15 19 1012.1 1012.1 0.0
20/01:30am 26.3 25.9 22.4 79 2.6 SE 28 35 15 19 1012.7 - 0.0
20/01:00am 26.3 25.7 22.0 77 2.9 SE 28 35 15 19 1013.0 - 0.0
20/12:30am 26.3 25.5 22.3 78 2.7 SE 30 39 16 21 1013.3 - 0.0
20/12:00am 26.4 26.7 22.9 81 2.4 ESE 26 35 14 19 1013.4 - 0.0
 
Date/Time
WST
Temp
°C
App
Temp
°C
Dew
Point
Rel
Hum
%
Delta-T
°C
Wind Press
QNH
hPa
Press
MSL
hPa
Rain
since 9 am
mm
Dir
 
Spd
km/h
Gust
km/h
Spd
kts
Gust
kts
19/11:30pm 26.4 25.7 22.5 79 2.6 SE 30 37 16 20 1013.5 - 0.0
19/11:00pm 26.4 26.0 23.0 81 2.3 SE 30 35 16 19 1013.4 1013.4 0.0
19/10:30pm 26.6 26.2 22.4 78 2.8 SE 28 33 15 18 1013.2 - 0.0

Other Formats:

Comma delimited format used in spreadsheet applications
http://www.bom.gov.au/fwo/IDW60801/IDW60801.96996.axf

JavaScript Object Notation format (JSON) in row-major order
http://www.bom.gov.au/fwo/IDW60801/IDW60801.96996.json